createdAt,value
2023-01-22T00:00:00.267Z,22.85
2023-01-22T00:02:26.240Z,21.73
2023-01-22T00:04:52.516Z,22.45
2023-01-22T00:07:18.940Z,22.45
2023-01-22T00:09:45.003Z,21.70
2023-01-22T00:12:10.829Z,21.80
2023-01-22T00:14:36.741Z,22.33
2023-01-22T00:17:02.885Z,23.63
2023-01-22T00:19:29.184Z,23.23
2023-01-22T00:21:54.968Z,22.10
2023-01-22T00:24:21.619Z,21.98
2023-01-22T00:26:47.469Z,21.05
2023-01-22T00:29:13.587Z,20.48
2023-01-22T00:31:39.553Z,21.98
2023-01-22T00:34:05.608Z,20.08
2023-01-22T00:36:31.483Z,19.65
2023-01-22T00:38:57.495Z,20.52
2023-01-22T00:41:23.865Z,20.00
2023-01-22T00:43:52.686Z,20.80
2023-01-22T00:46:20.955Z,19.35
2023-01-22T00:48:48.914Z,18.60
2023-01-22T00:51:15.535Z,20.60
2023-01-22T00:53:43.178Z,20.02
2023-01-22T00:56:10.920Z,18.92
2023-01-22T00:58:36.817Z,18.50
2023-01-22T01:01:03.483Z,18.52
2023-01-22T01:03:30.959Z,18.60
2023-01-22T01:06:19.056Z,18.45
2023-01-22T01:08:46.439Z,17.83
2023-01-22T01:11:18.559Z,18.58
2023-01-22T01:13:44.522Z,17.67
2023-01-22T01:16:14.350Z,16.15
2023-01-22T01:18:40.716Z,19.13
2023-01-22T01:21:06.809Z,17.38
2023-01-22T01:23:33.486Z,17.70
2023-01-22T01:25:59.365Z,18.95
2023-01-22T01:28:25.906Z,17.02
2023-01-22T01:30:51.857Z,16.33
2023-01-22T01:33:17.776Z,18.17
2023-01-22T01:35:43.623Z,17.30
2023-01-22T01:38:09.508Z,16.50
2023-01-22T01:40:41.238Z,16.60
2023-01-22T01:43:16.328Z,18.70
2023-01-22T01:45:42.659Z,16.48
2023-01-22T01:48:29.331Z,16.73
2023-01-22T01:51:09.996Z,17.30
2023-01-22T01:53:36.955Z,16.33
2023-01-22T01:56:06.818Z,17.25
2023-01-22T01:58:35.341Z,17.20
2023-01-22T02:01:07.977Z,16.52
2023-01-22T02:03:33.911Z,16.40
2023-01-22T02:05:59.837Z,15.80
2023-01-22T02:08:25.670Z,15.93
2023-01-22T02:10:52.712Z,15.23
2023-01-22T02:13:26.926Z,15.80
2023-01-22T02:15:53.343Z,14.27
2023-01-22T02:18:19.212Z,14.27
2023-01-22T02:20:58.944Z,15.13
2023-01-22T02:23:25.505Z,15.15
2023-01-22T02:25:51.865Z,15.05
2023-01-22T02:28:18.615Z,15.13
2023-01-22T02:30:45.236Z,14.02
2023-01-22T02:33:11.379Z,15.57
2023-01-22T02:35:37.417Z,13.38
2023-01-22T02:38:03.912Z,13.77
2023-01-22T02:40:29.804Z,13.02
2023-01-22T02:42:56.524Z,14.13
2023-01-22T02:45:23.261Z,13.82
2023-01-22T02:47:49.656Z,14.98
2023-01-22T02:50:16.511Z,14.18
2023-01-22T02:52:42.523Z,13.50
2023-01-22T02:55:09.120Z,13.43
2023-01-22T02:57:35.038Z,13.68
2023-01-22T03:00:01.534Z,14.35
2023-01-22T03:02:27.442Z,15.13
2023-01-22T03:05:02.445Z,13.70
2023-01-22T03:07:41.549Z,10.13
2023-01-22T03:10:18.416Z,13.98
2023-01-22T03:13:04.582Z,14.50
2023-01-22T03:15:49.134Z,14.45
2023-01-22T03:18:34.433Z,13.45
2023-01-22T03:21:13.526Z,14.40
2023-01-22T03:23:39.685Z,14.95
2023-01-22T03:26:06.074Z,14.18
2023-01-22T03:28:31.933Z,14.57
2023-01-22T03:30:57.809Z,14.07
2023-01-22T03:33:23.833Z,14.38
2023-01-22T03:35:49.674Z,14.57
2023-01-22T03:38:15.697Z,14.48
2023-01-22T03:40:41.890Z,15.10
2023-01-22T03:43:07.770Z,15.30
2023-01-22T03:45:34.286Z,16.17
2023-01-22T03:48:01.565Z,17.08
2023-01-22T03:50:27.878Z,16.38
2023-01-22T03:52:54.698Z,16.63
2023-01-22T03:55:20.500Z,16.92
2023-01-22T03:57:46.383Z,17.13
2023-01-22T04:00:13.118Z,17.75
2023-01-22T04:02:39.670Z,16.85
2023-01-22T04:05:06.068Z,16.63
2023-01-22T04:07:31.848Z,17.08
2023-01-22T04:09:57.695Z,15.70
2023-01-22T04:12:23.524Z,17.25
2023-01-22T04:14:49.272Z,16.80
2023-01-22T04:17:15.187Z,17.13
2023-01-22T04:19:41.108Z,16.70
2023-01-22T04:22:06.908Z,16.92
2023-01-22T04:24:32.678Z,17.60
2023-01-22T04:26:58.514Z,18.85
2023-01-22T04:29:24.371Z,18.33
2023-01-22T04:31:50.218Z,16.50
2023-01-22T04:34:16.055Z,17.38
2023-01-22T04:36:41.972Z,17.10
2023-01-22T04:39:07.748Z,14.55
2023-01-22T04:41:33.623Z,14.48
2023-01-22T04:43:59.383Z,14.57
2023-01-22T04:46:25.314Z,13.93
2023-01-22T04:48:51.196Z,15.02
2023-01-22T04:51:17.684Z,15.77
2023-01-22T04:53:43.476Z,14.50
2023-01-22T04:56:09.313Z,13.30
2023-01-22T04:58:35.273Z,12.65
2023-01-22T05:01:01.138Z,13.45
2023-01-22T05:03:26.975Z,13.63
2023-01-22T05:05:52.855Z,14.25
2023-01-22T05:08:18.713Z,13.88
2023-01-22T05:10:44.527Z,13.63
2023-01-22T05:13:10.365Z,13.00
2023-01-22T05:15:36.225Z,12.70
2023-01-22T05:18:02.072Z,12.70
2023-01-22T05:20:27.895Z,12.13
2023-01-22T05:22:53.724Z,12.98
2023-01-22T05:25:19.597Z,13.27
2023-01-22T05:27:45.421Z,12.38
2023-01-22T05:30:12.395Z,12.50
2023-01-22T05:32:38.812Z,11.90
2023-01-22T05:35:05.234Z,11.55
2023-01-22T05:37:31.962Z,12.80
2023-01-22T05:39:57.797Z,11.57
2023-01-22T05:42:24.622Z,12.05
2023-01-22T05:44:50.426Z,11.25
2023-01-22T05:47:16.340Z,10.68
2023-01-22T05:49:42.286Z,10.13
2023-01-22T05:52:11.093Z,11.85
2023-01-22T05:54:40.010Z,12.07
2023-01-22T05:57:06.481Z,10.98
2023-01-22T05:59:32.364Z,11.95
2023-01-22T06:01:58.118Z,11.10
2023-01-22T06:04:24.041Z,11.40
2023-01-22T06:06:49.885Z,10.85
2023-01-22T06:09:15.704Z,10.40
2023-01-22T06:11:41.493Z,10.45
2023-01-22T06:14:07.277Z,10.80
2023-01-22T06:16:33.142Z,11.27
2023-01-22T06:18:58.932Z,10.77
2023-01-22T06:21:24.713Z,10.85
2023-01-22T06:23:50.459Z,11.00
2023-01-22T06:26:16.241Z,11.40
2023-01-22T06:28:42.090Z,10.88
2023-01-22T06:31:08.072Z,10.27
2023-01-22T06:33:34.573Z,11.07
2023-01-22T06:36:01.048Z,9.90
2023-01-22T06:38:26.858Z,11.10
2023-01-22T06:40:54.725Z,9.98
2023-01-22T06:43:20.842Z,10.68
2023-01-22T06:45:46.648Z,9.95
2023-01-22T06:48:12.534Z,9.75
2023-01-22T06:50:38.363Z,10.02
2023-01-22T06:53:04.291Z,10.43
2023-01-22T06:55:30.084Z,10.32
2023-01-22T06:57:56.726Z,9.20
2023-01-22T07:00:23.049Z,10.52
2023-01-22T07:02:49.940Z,10.18
2023-01-22T07:05:16.221Z,9.80
2023-01-22T07:07:42.460Z,10.77
2023-01-22T07:10:09.630Z,9.35
2023-01-22T07:12:35.637Z,10.60
2023-01-22T07:15:01.427Z,9.00
2023-01-22T07:17:27.414Z,10.40
2023-01-22T07:19:53.289Z,9.25
2023-01-22T07:22:19.111Z,9.65
2023-01-22T07:24:44.983Z,10.02
2023-01-22T07:27:10.835Z,9.73
2023-01-22T07:29:37.018Z,10.75
2023-01-22T07:32:02.879Z,10.55
2023-01-22T07:34:28.760Z,10.65
2023-01-22T07:36:54.637Z,11.02
2023-01-22T07:39:20.474Z,9.90
2023-01-22T07:41:46.451Z,9.10
2023-01-22T07:44:12.701Z,13.40
2023-01-22T07:46:38.647Z,10.15
2023-01-22T07:49:05.644Z,9.60
2023-01-22T07:51:31.898Z,9.73
2023-01-22T07:53:57.784Z,8.57
2023-01-22T07:56:23.686Z,9.10
2023-01-22T07:58:49.542Z,9.52
2023-01-22T08:01:16.409Z,8.75
2023-01-22T08:03:42.511Z,8.45
2023-01-22T08:06:09.833Z,9.00
2023-01-22T08:08:35.997Z,8.98
2023-01-22T08:11:02.183Z,8.35
2023-01-22T08:13:27.995Z,8.80
2023-01-22T08:15:56.940Z,7.88
2023-01-22T08:18:23.095Z,7.72
2023-01-22T08:20:49.140Z,8.55
2023-01-22T08:23:15.011Z,7.63
2023-01-22T08:25:40.838Z,7.43
2023-01-22T08:28:06.791Z,7.75
2023-01-22T08:30:45.199Z,6.82
2023-01-22T08:33:11.868Z,8.13
2023-01-22T08:35:39.082Z,13.75
2023-01-22T08:38:04.966Z,9.75
2023-01-22T08:40:30.824Z,12.35
2023-01-22T08:42:56.708Z,9.70
2023-01-22T08:45:22.828Z,9.18
2023-01-22T08:47:50.704Z,9.45
2023-01-22T08:50:17.505Z,9.00
2023-01-22T08:52:43.538Z,8.50
2023-01-22T08:55:09.475Z,7.93
2023-01-22T08:57:36.217Z,9.30
2023-01-22T09:00:04.175Z,8.95
2023-01-22T09:02:30.195Z,7.28
2023-01-22T09:04:56.035Z,6.72
2023-01-22T09:07:22.005Z,7.40
2023-01-22T09:09:47.953Z,7.97
2023-01-22T09:12:14.023Z,6.63
2023-01-22T09:14:39.975Z,8.38
2023-01-22T09:17:05.882Z,6.78
2023-01-22T09:19:31.857Z,7.22
2023-01-22T09:21:57.723Z,6.95
2023-01-22T09:24:23.643Z,7.00
2023-01-22T09:26:49.804Z,5.93
2023-01-22T09:29:15.862Z,6.13
2023-01-22T09:31:41.746Z,5.68
2023-01-22T09:34:07.995Z,6.97
2023-01-22T09:36:33.937Z,6.00
2023-01-22T09:38:59.878Z,6.85
2023-01-22T09:41:31.199Z,6.20
2023-01-22T09:44:03.168Z,6.20
2023-01-22T09:46:49.328Z,7.28
2023-01-22T09:49:18.187Z,6.82
2023-01-22T09:51:49.394Z,6.00
2023-01-22T09:54:16.669Z,6.97
2023-01-22T09:56:46.359Z,7.65
2023-01-22T09:59:25.713Z,6.25
2023-01-22T10:01:57.961Z,5.75
2023-01-22T10:04:34.551Z,6.63
2023-01-22T10:07:03.969Z,5.75
2023-01-22T10:09:32.148Z,5.32
2023-01-22T10:11:59.497Z,5.88
2023-01-22T10:14:28.847Z,5.53
2023-01-22T10:17:00.295Z,6.22
2023-01-22T10:19:40.763Z,6.53
2023-01-22T10:22:14.890Z,6.32
2023-01-22T10:24:40.827Z,8.38
2023-01-22T10:27:15.568Z,8.00
2023-01-22T10:30:06.249Z,7.63
2023-01-22T10:32:32.437Z,7.55
2023-01-22T10:35:10.547Z,7.15
2023-01-22T10:37:59.133Z,9.13
2023-01-22T10:40:33.102Z,7.55
2023-01-22T10:43:12.232Z,8.13
2023-01-22T10:45:49.304Z,7.22
2023-01-22T10:48:16.545Z,8.07
2023-01-22T10:50:44.428Z,8.48
2023-01-22T10:53:35.061Z,8.48
2023-01-22T10:56:03.298Z,7.70
2023-01-22T10:58:33.479Z,7.90
2023-01-22T11:01:06.057Z,7.22
2023-01-22T11:03:38.575Z,8.15
2023-01-22T11:06:27.087Z,8.00
2023-01-22T11:08:59.428Z,9.45
2023-01-22T11:11:32.422Z,9.57
2023-01-22T11:14:09.832Z,9.00
2023-01-22T11:16:38.118Z,9.00
2023-01-22T11:19:13.520Z,8.57
2023-01-22T11:21:46.319Z,9.55
2023-01-22T11:24:30.761Z,9.95
2023-01-22T11:27:09.380Z,10.18
2023-01-22T11:29:58.057Z,10.23
2023-01-22T11:32:36.131Z,10.88
2023-01-22T11:35:01.976Z,13.25
2023-01-22T11:38:04.928Z,13.63
2023-01-22T11:40:34.061Z,16.63
2023-01-22T11:43:54.785Z,17.65
2023-01-22T11:46:46.119Z,14.02
2023-01-22T11:49:29.336Z,13.93
2023-01-22T11:52:26.069Z,11.65
2023-01-22T11:55:20.020Z,12.88
2023-01-22T11:58:06.132Z,10.60
2023-01-22T12:01:04.187Z,10.40
2023-01-22T12:03:38.974Z,11.20
2023-01-22T12:06:20.761Z,11.52
2023-01-22T12:09:16.492Z,15.98
2023-01-22T12:11:48.471Z,18.80
2023-01-22T12:14:32.387Z,15.18
2023-01-22T12:17:40.592Z,12.45
2023-01-22T12:20:25.060Z,13.10
2023-01-22T12:23:13.061Z,11.40
2023-01-22T12:25:54.348Z,11.55
2023-01-22T12:28:39.364Z,11.55
2023-01-22T12:31:14.552Z,12.90
2023-01-22T12:33:41.564Z,12.55
2023-01-22T12:36:13.718Z,12.18
2023-01-22T12:38:50.520Z,12.52
2023-01-22T12:41:53.656Z,13.65
2023-01-22T12:44:45.533Z,13.85
2023-01-22T12:47:23.960Z,12.98
2023-01-22T12:49:51.802Z,12.98
2023-01-22T12:52:34.339Z,14.52
2023-01-22T12:55:01.802Z,14.45
2023-01-22T12:57:41.125Z,13.15
2023-01-22T13:00:34.022Z,13.60
2023-01-22T13:03:30.640Z,17.65
2023-01-22T13:05:58.882Z,22.98
2023-01-22T13:08:44.436Z,17.23
2023-01-22T13:11:26.055Z,14.15
2023-01-22T13:14:03.298Z,15.55
2023-01-22T13:16:38.270Z,19.60
2023-01-22T13:19:25.347Z,19.90
2023-01-22T13:21:52.094Z,18.90
2023-01-22T13:24:20.608Z,21.65
2023-01-22T13:26:59.614Z,14.50
2023-01-22T13:29:36.818Z,14.13
2023-01-22T13:32:05.743Z,19.15
2023-01-22T13:34:31.860Z,18.35
2023-01-22T13:36:59.468Z,16.27
2023-01-22T13:39:31.509Z,16.85
2023-01-22T13:41:59.954Z,19.83
2023-01-22T13:44:55.929Z,19.88
2023-01-22T13:47:30.001Z,17.15
2023-01-22T13:49:56.305Z,18.27
2023-01-22T13:52:22.602Z,15.90
2023-01-22T13:54:58.009Z,18.33
2023-01-22T13:57:23.822Z,16.30
2023-01-22T14:00:00.650Z,17.45
2023-01-22T14:02:33.927Z,17.20
2023-01-22T14:05:00.603Z,18.00
2023-01-22T14:07:31.724Z,14.02
2023-01-22T14:10:11.579Z,16.15
2023-01-22T14:12:37.592Z,15.43
2023-01-22T14:15:16.914Z,14.85
2023-01-22T14:17:42.976Z,15.95
2023-01-22T14:20:09.826Z,15.93
2023-01-22T14:22:35.670Z,17.27
2023-01-22T14:25:01.674Z,17.67
2023-01-22T14:27:48.071Z,25.27
2023-01-22T14:30:17.184Z,28.70
2023-01-22T14:32:44.633Z,33.60
2023-01-22T14:35:19.947Z,29.50
2023-01-22T14:37:46.653Z,19.45
2023-01-22T14:40:14.630Z,23.65
2023-01-22T14:42:41.047Z,19.13
2023-01-22T14:45:07.960Z,25.65
2023-01-22T14:47:34.241Z,20.98
2023-01-22T14:50:01.053Z,16.40
2023-01-22T14:52:27.170Z,14.38
2023-01-22T14:54:55.344Z,14.07
2023-01-22T14:57:22.430Z,17.60
2023-01-22T14:59:48.268Z,22.42
2023-01-22T15:02:14.156Z,15.32
2023-01-22T15:04:41.111Z,16.52
2023-01-22T15:07:07.361Z,15.32
2023-01-22T15:09:33.567Z,16.40
2023-01-22T15:11:59.585Z,15.93
2023-01-22T15:14:25.577Z,19.80
2023-01-22T15:16:51.596Z,14.82
2023-01-22T15:19:18.613Z,17.27
2023-01-22T15:21:44.953Z,15.82
2023-01-22T15:24:10.821Z,15.43
2023-01-22T15:26:37.629Z,21.27
2023-01-22T15:29:06.207Z,19.15
2023-01-22T15:31:32.734Z,17.70
2023-01-22T15:34:01.441Z,16.58
2023-01-22T15:36:32.447Z,16.58
2023-01-22T15:38:58.619Z,16.40
2023-01-22T15:41:32.788Z,17.48
2023-01-22T15:44:00.830Z,18.33
2023-01-22T15:46:31.874Z,17.23
2023-01-22T15:48:59.168Z,17.23
2023-01-22T15:51:26.569Z,16.92
2023-01-22T15:53:55.102Z,17.73
2023-01-22T15:56:23.836Z,18.50
2023-01-22T15:58:50.663Z,19.65
2023-01-22T16:01:18.287Z,21.90
2023-01-22T16:03:45.487Z,19.70
2023-01-22T16:06:26.222Z,18.10
2023-01-22T16:08:53.822Z,20.67
2023-01-22T16:11:21.149Z,16.92
2023-01-22T16:13:47.427Z,20.35
2023-01-22T16:16:25.671Z,18.33
2023-01-22T16:18:52.559Z,20.55
2023-01-22T16:21:20.002Z,19.80
2023-01-22T16:23:47.230Z,20.88
2023-01-22T16:26:16.398Z,20.65
2023-01-22T16:28:43.665Z,20.15
2023-01-22T16:31:12.525Z,22.05
2023-01-22T16:33:42.160Z,21.08
2023-01-22T16:36:11.630Z,21.23
2023-01-22T16:38:38.903Z,21.55
2023-01-22T16:41:25.314Z,23.38
2023-01-22T16:43:53.355Z,23.75
2023-01-22T16:46:22.508Z,22.90
2023-01-22T16:48:48.670Z,24.17
2023-01-22T16:51:21.598Z,21.52
2023-01-22T16:53:48.612Z,20.38
2023-01-22T16:56:15.111Z,19.48
2023-01-22T16:58:41.310Z,20.58
2023-01-22T17:01:10.932Z,21.40
2023-01-22T17:03:37.740Z,21.17
2023-01-22T17:06:06.779Z,21.02
2023-01-22T17:08:35.844Z,18.35
2023-01-22T17:11:01.904Z,20.52
2023-01-22T17:13:29.261Z,22.60
2023-01-22T17:15:55.317Z,20.77
2023-01-22T17:18:21.386Z,21.10
2023-01-22T17:21:01.360Z,20.67
2023-01-22T17:23:27.749Z,21.17
2023-01-22T17:25:54.160Z,26.92
2023-01-22T17:28:21.375Z,23.45
2023-01-22T17:30:47.839Z,18.95
2023-01-22T17:33:14.142Z,20.33
2023-01-22T17:35:41.335Z,20.02
2023-01-22T17:38:08.104Z,19.85
2023-01-22T17:40:36.227Z,21.15
2023-01-22T17:43:02.326Z,25.08
2023-01-22T17:45:28.333Z,20.40
2023-01-22T17:47:54.380Z,21.40
2023-01-22T17:50:20.303Z,19.20
2023-01-22T17:52:46.392Z,21.83
2023-01-22T17:55:13.212Z,19.05
2023-01-22T17:57:41.367Z,23.60
2023-01-22T18:00:09.315Z,22.98
2023-01-22T18:02:35.332Z,21.27
2023-01-22T18:05:01.647Z,20.52
2023-01-22T18:07:28.360Z,21.80
2023-01-22T18:09:54.364Z,21.17
2023-01-22T18:12:20.352Z,19.73
2023-01-22T18:14:46.705Z,21.60
2023-01-22T18:17:12.776Z,21.42
2023-01-22T18:19:38.695Z,23.17
2023-01-22T18:22:04.509Z,19.77
2023-01-22T18:24:32.515Z,21.33
2023-01-22T18:26:58.486Z,24.10
2023-01-22T18:29:25.941Z,19.55
2023-01-22T18:31:52.034Z,23.23
2023-01-22T18:34:19.570Z,22.73
2023-01-22T18:36:45.542Z,21.25
2023-01-22T18:39:15.479Z,21.27
2023-01-22T18:41:43.110Z,21.52
2023-01-22T18:44:10.377Z,20.70
2023-01-22T18:46:38.345Z,21.75
2023-01-22T18:49:07.321Z,19.92
2023-01-22T18:51:34.092Z,20.35
2023-01-22T18:54:02.539Z,23.48
2023-01-22T18:56:28.430Z,18.95
2023-01-22T18:58:55.454Z,20.20
2023-01-22T19:01:25.854Z,22.67
2023-01-22T19:03:56.088Z,23.65
2023-01-22T19:06:30.490Z,22.25
2023-01-22T19:09:13.278Z,20.85
2023-01-22T19:11:41.847Z,21.75
2023-01-22T19:14:09.462Z,25.83
2023-01-22T19:16:36.982Z,23.73
2023-01-22T19:19:10.403Z,21.70
2023-01-22T19:21:39.589Z,21.55
2023-01-22T19:24:07.878Z,20.17
2023-01-22T19:26:35.929Z,24.77
2023-01-22T19:29:08.287Z,19.90
2023-01-22T19:31:39.986Z,24.77
2023-01-22T19:34:06.448Z,24.25
2023-01-22T19:36:36.592Z,21.48
2023-01-22T19:39:06.677Z,24.13
2023-01-22T19:41:32.903Z,24.48
2023-01-22T19:44:00.663Z,24.60
2023-01-22T19:46:27.961Z,22.17
2023-01-22T19:48:54.433Z,24.48
2023-01-22T19:51:22.405Z,23.13
2023-01-22T19:53:48.993Z,24.70
2023-01-22T19:56:23.702Z,26.92
2023-01-22T19:58:50.968Z,23.57
2023-01-22T20:01:17.253Z,21.60
2023-01-22T20:03:43.839Z,22.55
2023-01-22T20:06:12.435Z,25.10
2023-01-22T20:08:38.358Z,23.35
2023-01-22T20:11:07.311Z,21.45
2023-01-22T20:13:33.922Z,25.35
2023-01-22T20:16:00.680Z,23.25
2023-01-22T20:18:27.448Z,21.98
2023-01-22T20:21:01.161Z,26.10
2023-01-22T20:23:28.426Z,23.60
2023-01-22T20:25:55.113Z,25.58
2023-01-22T20:28:22.068Z,23.30
2023-01-22T20:30:59.300Z,21.02
2023-01-22T20:33:26.424Z,24.25
2023-01-22T20:36:01.806Z,23.27
2023-01-22T20:38:28.388Z,26.60
2023-01-22T20:40:54.363Z,23.73
2023-01-22T20:43:20.520Z,25.10
2023-01-22T20:46:01.924Z,25.50
2023-01-22T20:48:29.838Z,25.35
2023-01-22T20:50:55.889Z,23.98
2023-01-22T20:53:22.203Z,24.63
2023-01-22T20:56:04.088Z,25.05
2023-01-22T20:58:30.753Z,23.63
2023-01-22T21:01:18.442Z,22.10
2023-01-22T21:03:46.775Z,24.05
2023-01-22T21:06:14.559Z,23.85
2023-01-22T21:08:41.953Z,21.63
2023-01-22T21:11:10.770Z,24.45
2023-01-22T21:13:37.143Z,24.88
2023-01-22T21:16:08.423Z,25.73
2023-01-22T21:18:35.522Z,23.63
2023-01-22T21:21:03.790Z,24.30
2023-01-22T21:23:29.716Z,26.40
2023-01-22T21:25:55.812Z,25.95
2023-01-22T21:28:21.832Z,26.50
2023-01-22T21:30:47.700Z,28.55
2023-01-22T21:33:13.685Z,26.55
2023-01-22T21:35:39.626Z,28.05
2023-01-22T21:38:05.580Z,26.42
2023-01-22T21:40:31.378Z,26.48
2023-01-22T21:43:35.678Z,25.10
2023-01-22T21:46:19.856Z,27.05
2023-01-22T21:48:45.772Z,31.90
2023-01-22T21:51:11.963Z,27.60
2023-01-22T21:53:37.831Z,26.98
2023-01-22T21:56:04.185Z,29.27
2023-01-22T21:58:30.105Z,28.83
2023-01-22T22:01:03.777Z,28.38
2023-01-22T22:03:32.016Z,28.35
2023-01-22T22:06:01.901Z,35.35
2023-01-22T22:08:36.814Z,31.85
2023-01-22T22:11:03.918Z,28.23
2023-01-22T22:13:31.631Z,27.52
2023-01-22T22:16:04.837Z,27.02
2023-01-22T22:18:31.099Z,27.15
2023-01-22T22:21:02.656Z,28.65
2023-01-22T22:23:29.840Z,27.23
2023-01-22T22:25:56.415Z,26.90
2023-01-22T22:28:23.101Z,24.38
2023-01-22T22:30:49.035Z,25.52
2023-01-22T22:33:15.217Z,23.95
2023-01-22T22:35:45.459Z,26.52
2023-01-22T22:38:11.979Z,24.83
2023-01-22T22:40:37.932Z,23.45
2023-01-22T22:43:03.935Z,24.05
2023-01-22T22:45:29.947Z,24.73
2023-01-22T22:47:57.459Z,23.58
2023-01-22T22:50:23.343Z,24.17
2023-01-22T22:52:49.250Z,23.95
2023-01-22T22:55:15.162Z,22.63
2023-01-22T22:57:40.968Z,22.75
2023-01-22T23:00:11.231Z,22.80
2023-01-22T23:02:37.308Z,22.10
2023-01-22T23:05:03.224Z,21.95
2023-01-22T23:07:29.054Z,21.85
2023-01-22T23:09:55.749Z,23.23
2023-01-22T23:12:21.587Z,21.30
2023-01-22T23:14:47.424Z,22.17
2023-01-22T23:17:13.334Z,23.75
2023-01-22T23:19:39.549Z,21.23
2023-01-22T23:22:05.319Z,22.90
2023-01-22T23:24:31.314Z,21.52
2023-01-22T23:26:57.198Z,21.98
2023-01-22T23:29:23.942Z,21.98
2023-01-22T23:31:50.441Z,21.40
2023-01-22T23:34:18.727Z,21.70
2023-01-22T23:36:46.116Z,23.83
2023-01-22T23:39:14.981Z,22.17
2023-01-22T23:41:41.600Z,23.88
2023-01-22T23:44:07.600Z,22.65
2023-01-22T23:46:35.667Z,22.73
2023-01-22T23:49:03.532Z,22.20
2023-01-22T23:51:29.933Z,23.55
2023-01-22T23:53:56.337Z,24.70
2023-01-22T23:56:24.855Z,21.48
2023-01-22T23:58:54.621Z,23.00
